createdAt,value
2022-11-12T00:01:02.057Z,14.20
2022-11-12T00:03:29.151Z,14.20
2022-11-12T00:05:56.199Z,14.20
2022-11-12T00:08:23.589Z,14.20
2022-11-12T00:10:51.055Z,14.20
2022-11-12T00:13:18.132Z,14.20
2022-11-12T00:15:47.060Z,14.20
2022-11-12T00:18:14.202Z,14.20
2022-11-12T00:20:41.583Z,14.20
2022-11-12T00:23:08.712Z,14.20
2022-11-12T00:25:36.006Z,14.20
2022-11-12T00:28:08.619Z,14.20
2022-11-12T00:30:38.910Z,14.20
2022-11-12T00:33:06.062Z,14.20
2022-11-12T00:35:34.287Z,14.20
2022-11-12T00:38:01.368Z,14.20
2022-11-12T00:40:29.268Z,14.20
2022-11-12T00:42:56.503Z,14.20
2022-11-12T00:45:23.835Z,14.10
2022-11-12T00:47:53.939Z,14.20
2022-11-12T00:50:20.994Z,14.10
2022-11-12T00:52:48.027Z,14.20
2022-11-12T00:55:15.118Z,14.20
2022-11-12T00:57:42.144Z,14.20
2022-11-12T01:00:14.906Z,14.20
2022-11-12T01:02:46.382Z,14.10
2022-11-12T01:05:17.116Z,14.20
2022-11-12T01:07:44.300Z,14.20
2022-11-12T01:10:11.995Z,14.20
2022-11-12T01:12:39.237Z,14.10
2022-11-12T01:15:07.152Z,14.10
2022-11-12T01:17:34.739Z,14.20
2022-11-12T01:20:01.768Z,14.20
2022-11-12T01:22:28.792Z,14.10
2022-11-12T01:24:56.043Z,14.10
2022-11-12T01:27:23.047Z,14.20
2022-11-12T01:29:50.044Z,14.20
2022-11-12T01:32:17.137Z,14.20
2022-11-12T01:34:44.214Z,14.20
2022-11-12T01:37:11.438Z,14.20
2022-11-12T01:39:38.453Z,14.20
2022-11-12T01:42:05.596Z,14.20
2022-11-12T01:44:35.026Z,14.10
2022-11-12T01:47:27.281Z,14.10
2022-11-12T01:49:59.232Z,14.20
2022-11-12T01:52:29.206Z,14.20
2022-11-12T01:55:05.022Z,14.20
2022-11-12T01:57:38.363Z,14.20
2022-11-12T02:00:10.515Z,14.20
2022-11-12T02:02:38.596Z,14.20
2022-11-12T02:05:09.942Z,14.20
2022-11-12T02:07:41.436Z,14.20
2022-11-12T02:10:08.777Z,14.20
2022-11-12T02:12:55.558Z,14.20
2022-11-12T02:15:22.647Z,14.20
2022-11-12T02:17:49.736Z,14.20
2022-11-12T02:20:17.269Z,14.20
2022-11-12T02:22:45.489Z,14.20
2022-11-12T02:25:21.223Z,14.20
2022-11-12T02:27:52.003Z,14.20
2022-11-12T02:30:19.916Z,14.20
2022-11-12T02:32:46.928Z,14.30
2022-11-12T02:35:14.065Z,14.30
2022-11-12T02:37:41.239Z,14.30
2022-11-12T02:40:08.844Z,14.30
2022-11-12T02:42:35.836Z,14.30
2022-11-12T02:45:03.136Z,14.30
2022-11-12T02:47:30.258Z,14.30
2022-11-12T02:49:57.278Z,14.30
2022-11-12T02:52:24.363Z,14.30
2022-11-12T02:54:51.432Z,14.40
2022-11-12T02:57:18.535Z,14.30
2022-11-12T02:59:45.557Z,14.30
2022-11-12T03:02:12.610Z,14.30
2022-11-12T03:04:39.702Z,14.30
2022-11-12T03:07:06.998Z,14.30
2022-11-12T03:09:35.081Z,14.30
2022-11-12T03:12:02.106Z,14.30
2022-11-12T03:14:29.384Z,14.30
2022-11-12T03:16:56.407Z,14.40
2022-11-12T03:19:23.432Z,14.40
2022-11-12T03:21:50.726Z,14.40
2022-11-12T03:24:17.763Z,14.40
2022-11-12T03:26:44.790Z,14.40
2022-11-12T03:29:11.999Z,14.40
2022-11-12T03:31:39.499Z,14.40
2022-11-12T03:34:06.625Z,14.30
2022-11-12T03:36:33.795Z,14.30
2022-11-12T03:39:00.867Z,14.40
2022-11-12T03:41:28.081Z,14.30
2022-11-12T03:43:55.120Z,14.30
2022-11-12T03:46:22.116Z,14.30
2022-11-12T03:48:49.174Z,14.30
2022-11-12T03:51:16.580Z,14.30
2022-11-12T03:53:43.851Z,14.30
2022-11-12T03:56:10.914Z,14.30
2022-11-12T03:58:37.901Z,14.30
2022-11-12T04:01:05.018Z,14.30
2022-11-12T04:03:32.050Z,14.30
2022-11-12T04:06:17.450Z,14.30
2022-11-12T04:08:44.597Z,14.30
2022-11-12T04:11:16.694Z,14.40
2022-11-12T04:13:47.726Z,14.30
2022-11-12T04:16:36.325Z,14.40
2022-11-12T04:19:23.502Z,14.40
2022-11-12T04:21:56.852Z,14.40
2022-11-12T04:24:49.954Z,14.40
2022-11-12T04:27:18.313Z,14.40
2022-11-12T04:30:04.535Z,14.40
2022-11-12T04:32:34.243Z,14.40
2022-11-12T04:35:02.138Z,14.40
2022-11-12T04:37:44.815Z,14.40
2022-11-12T04:40:42.806Z,14.40
2022-11-12T04:43:33.886Z,14.40
2022-11-12T04:46:02.043Z,14.40
2022-11-12T04:48:29.855Z,14.40
2022-11-12T04:51:03.728Z,14.40
2022-11-12T04:53:31.320Z,14.40
2022-11-12T04:55:59.671Z,14.40
2022-11-12T04:58:27.000Z,14.40
2022-11-12T05:00:54.629Z,14.40
2022-11-12T05:03:21.728Z,14.30
2022-11-12T05:05:48.792Z,14.30
2022-11-12T05:08:16.005Z,14.30
2022-11-12T05:10:44.411Z,14.30
2022-11-12T05:13:11.411Z,14.30
2022-11-12T05:15:38.473Z,14.30
2022-11-12T05:18:05.518Z,14.30
2022-11-12T05:20:32.554Z,14.30
2022-11-12T05:23:06.611Z,14.30
2022-11-12T05:25:36.069Z,14.30
2022-11-12T05:28:03.642Z,14.30
2022-11-12T05:30:31.948Z,14.30
2022-11-12T05:32:58.980Z,14.30
2022-11-12T05:35:26.036Z,14.30
2022-11-12T05:37:53.274Z,14.30
2022-11-12T05:40:20.480Z,14.30
2022-11-12T05:42:47.497Z,14.30
2022-11-12T05:45:14.590Z,14.30
2022-11-12T05:47:41.696Z,14.30
2022-11-12T05:50:09.064Z,14.30
2022-11-12T05:52:36.415Z,14.30
2022-11-12T05:55:03.518Z,14.30
2022-11-12T05:57:30.852Z,14.20
2022-11-12T05:59:58.052Z,14.20
2022-11-12T06:02:25.121Z,14.30
2022-11-12T06:04:52.218Z,14.20
2022-11-12T06:07:19.487Z,14.30
2022-11-12T06:09:46.677Z,14.20
2022-11-12T06:12:13.730Z,14.20
2022-11-12T06:14:40.917Z,14.20
2022-11-12T06:17:07.932Z,14.20
2022-11-12T06:19:35.026Z,14.20
2022-11-12T06:22:02.085Z,14.20
2022-11-12T06:24:34.902Z,14.20
2022-11-12T06:27:02.706Z,14.20
2022-11-12T06:29:30.367Z,14.20
2022-11-12T06:31:57.552Z,14.20
2022-11-12T06:34:24.604Z,14.10
2022-11-12T06:36:51.694Z,14.10
2022-11-12T06:39:18.844Z,14.20
2022-11-12T06:41:45.931Z,14.20
2022-11-12T06:44:14.677Z,14.10
2022-11-12T06:46:44.893Z,14.20
2022-11-12T06:49:11.994Z,14.10
2022-11-12T06:51:40.113Z,14.10
2022-11-12T06:54:07.593Z,14.20
2022-11-12T06:56:35.173Z,14.10
2022-11-12T06:59:02.177Z,14.10
2022-11-12T07:01:29.480Z,14.20
2022-11-12T07:03:56.861Z,14.20
2022-11-12T07:06:23.863Z,14.20
2022-11-12T07:08:51.717Z,14.20
2022-11-12T07:11:19.881Z,14.20
2022-11-12T07:13:47.715Z,14.20
2022-11-12T07:16:18.992Z,14.20
2022-11-12T07:18:47.610Z,14.20
2022-11-12T07:21:18.285Z,14.20
2022-11-12T07:23:46.584Z,14.10
2022-11-12T07:26:17.741Z,14.70
2022-11-12T07:28:45.799Z,14.10
2022-11-12T07:31:14.308Z,14.10
2022-11-12T07:33:42.350Z,14.20
2022-11-12T07:36:14.037Z,14.10
2022-11-12T07:38:42.661Z,14.10
2022-11-12T07:41:15.060Z,14.10
2022-11-12T07:43:44.328Z,14.10
2022-11-12T07:46:23.902Z,14.20
2022-11-12T07:48:51.464Z,14.20
2022-11-12T07:51:27.801Z,14.10
2022-11-12T07:53:59.530Z,14.10
2022-11-12T07:56:28.220Z,14.10
2022-11-12T07:58:55.416Z,14.10
2022-11-12T08:01:34.088Z,14.10
2022-11-12T08:04:02.386Z,14.00
2022-11-12T08:06:30.969Z,14.00
2022-11-12T08:08:59.797Z,14.00
2022-11-12T08:11:26.996Z,14.00
2022-11-12T08:13:54.078Z,14.00
2022-11-12T08:16:21.298Z,14.10
2022-11-12T08:18:48.616Z,14.00
2022-11-12T08:21:17.308Z,14.00
2022-11-12T08:23:44.783Z,14.00
2022-11-12T08:26:14.297Z,14.00
2022-11-12T08:28:42.072Z,14.00
2022-11-12T08:31:20.127Z,14.00
2022-11-12T08:33:47.326Z,14.00
2022-11-12T08:36:16.712Z,13.90
2022-11-12T08:38:43.985Z,13.90
2022-11-12T08:41:12.908Z,13.90
2022-11-12T08:43:41.355Z,13.90
2022-11-12T08:46:08.853Z,13.90
2022-11-12T08:48:36.965Z,13.90
2022-11-12T08:51:05.593Z,13.90
2022-11-12T08:53:33.089Z,13.90
2022-11-12T08:56:00.462Z,13.90
2022-11-12T08:58:28.334Z,13.90
2022-11-12T09:00:56.317Z,13.90
2022-11-12T09:03:25.784Z,14.00
2022-11-12T09:05:53.772Z,14.00
2022-11-12T09:08:23.762Z,13.90
2022-11-12T09:10:52.041Z,14.00
2022-11-12T09:13:19.743Z,13.90
2022-11-12T09:15:47.541Z,13.90
2022-11-12T09:18:16.981Z,13.90
2022-11-12T09:20:44.140Z,13.90
2022-11-12T09:23:16.533Z,14.00
2022-11-12T09:25:44.236Z,14.00
2022-11-12T09:28:15.623Z,14.10
2022-11-12T09:30:46.775Z,14.10
2022-11-12T09:33:30.037Z,14.10
2022-11-12T09:36:00.511Z,14.10
2022-11-12T09:38:27.965Z,14.10
2022-11-12T09:41:14.162Z,14.10
2022-11-12T09:43:49.607Z,14.00
2022-11-12T09:46:44.968Z,14.10
2022-11-12T09:49:27.730Z,14.10
2022-11-12T09:52:01.640Z,14.10
2022-11-12T09:54:31.940Z,14.10
2022-11-12T09:56:59.113Z,14.20
2022-11-12T09:59:34.818Z,14.20
2022-11-12T10:02:35.692Z,14.20
2022-11-12T10:05:22.587Z,14.20
2022-11-12T10:08:18.851Z,14.20
2022-11-12T10:11:08.062Z,14.20
2022-11-12T10:14:06.597Z,14.20
2022-11-12T10:16:45.735Z,14.20
2022-11-12T10:19:23.386Z,14.30
2022-11-12T10:22:28.037Z,14.30
2022-11-12T10:24:55.783Z,14.30
2022-11-12T10:27:27.587Z,14.30
2022-11-12T10:30:04.223Z,14.40
2022-11-12T10:32:31.308Z,14.30
2022-11-12T10:34:58.393Z,14.40
2022-11-12T10:37:43.018Z,14.40
2022-11-12T10:40:24.980Z,14.40
2022-11-12T10:43:03.637Z,14.40
2022-11-12T10:45:31.847Z,14.40
2022-11-12T10:47:59.712Z,14.40
2022-11-12T10:50:36.767Z,14.40
2022-11-12T10:53:10.701Z,14.40
2022-11-12T10:56:01.756Z,14.40
2022-11-12T10:58:29.155Z,14.40
2022-11-12T11:01:05.350Z,14.40
2022-11-12T11:03:44.579Z,14.30
2022-11-12T11:06:14.869Z,14.30
2022-11-12T11:08:45.157Z,14.30
2022-11-12T11:11:28.691Z,14.30
2022-11-12T11:13:58.851Z,14.30
2022-11-12T11:16:27.898Z,14.20
2022-11-12T11:19:05.339Z,14.20
2022-11-12T11:22:06.988Z,14.30
2022-11-12T11:24:45.137Z,14.30
2022-11-12T11:27:12.098Z,14.30
2022-11-12T11:29:51.070Z,14.30
2022-11-12T11:32:27.028Z,14.30
2022-11-12T11:35:45.344Z,14.30
2022-11-12T11:38:34.979Z,14.40
2022-11-12T11:41:17.076Z,14.40
2022-11-12T11:43:56.384Z,14.40
2022-11-12T11:46:48.143Z,14.40
2022-11-12T11:49:23.946Z,14.40
2022-11-12T11:52:09.341Z,14.40
2022-11-12T11:55:14.157Z,14.40
2022-11-12T11:58:11.375Z,14.50
2022-11-12T12:01:04.820Z,14.50
2022-11-12T12:03:46.936Z,14.50
2022-11-12T12:06:17.078Z,14.50
2022-11-12T12:09:03.061Z,14.50
2022-11-12T12:11:34.964Z,14.50
2022-11-12T12:14:18.717Z,14.40
2022-11-12T12:16:51.722Z,14.40
2022-11-12T12:19:49.392Z,14.50
2022-11-12T12:22:23.940Z,14.40
2022-11-12T12:24:56.220Z,14.40
2022-11-12T12:27:37.033Z,14.40
2022-11-12T12:30:14.327Z,14.40
2022-11-12T12:32:57.196Z,14.50
2022-11-12T12:35:30.424Z,14.40
2022-11-12T12:38:11.477Z,14.40
2022-11-12T12:40:51.954Z,14.50
2022-11-12T12:43:46.157Z,14.50
2022-11-12T12:46:15.814Z,14.40
2022-11-12T12:48:46.510Z,14.40
2022-11-12T12:51:13.921Z,14.40
2022-11-12T12:53:40.957Z,14.40
2022-11-12T12:56:30.518Z,14.30
2022-11-12T12:59:03.881Z,14.30
2022-11-12T13:01:35.192Z,14.30
2022-11-12T13:04:12.056Z,14.20
2022-11-12T13:06:46.742Z,14.10
2022-11-12T13:09:15.054Z,14.10
2022-11-12T13:12:00.489Z,14.10
2022-11-12T13:14:36.990Z,14.00
2022-11-12T13:17:04.010Z,14.00
2022-11-12T13:19:35.134Z,14.00
2022-11-12T13:22:20.403Z,14.00
2022-11-12T13:25:07.055Z,13.90
2022-11-12T13:27:46.066Z,13.90
2022-11-12T13:30:21.016Z,13.90
2022-11-12T13:32:48.056Z,13.90
2022-11-12T13:35:22.660Z,13.80
2022-11-12T13:38:17.152Z,13.80
2022-11-12T13:41:05.455Z,13.70
2022-11-12T13:43:43.056Z,13.70
2022-11-12T13:46:10.867Z,13.60
2022-11-12T13:48:42.911Z,13.60
2022-11-12T13:51:48.385Z,13.60
2022-11-12T13:54:38.524Z,13.60
2022-11-12T13:57:24.878Z,13.50
2022-11-12T14:00:22.569Z,13.50
2022-11-12T14:02:54.792Z,13.50
2022-11-12T14:05:28.045Z,13.50
2022-11-12T14:08:22.958Z,13.40
2022-11-12T14:11:11.548Z,12.00
2022-11-12T14:14:04.551Z,13.40
2022-11-12T14:16:43.482Z,13.30
2022-11-12T14:19:13.941Z,13.30
2022-11-12T14:21:41.011Z,13.30
2022-11-12T14:24:13.391Z,13.20
2022-11-12T14:26:43.004Z,13.20
2022-11-12T14:29:19.917Z,13.30
2022-11-12T14:31:47.503Z,13.20
2022-11-12T14:34:30.615Z,13.20
2022-11-12T14:36:58.078Z,13.20
2022-11-12T14:39:27.644Z,13.20
2022-11-12T14:41:57.566Z,13.20
2022-11-12T14:44:36.210Z,13.10
2022-11-12T14:47:04.008Z,13.20
2022-11-12T14:49:45.582Z,13.20
2022-11-12T14:52:15.374Z,13.20
2022-11-12T14:54:50.645Z,13.10
2022-11-12T14:57:29.150Z,13.10
2022-11-12T14:59:56.833Z,13.10
2022-11-12T15:02:49.807Z,13.00
2022-11-12T15:05:21.391Z,13.00
2022-11-12T15:07:51.538Z,13.00
2022-11-12T15:10:36.511Z,12.90
2022-11-12T15:13:08.612Z,12.90
2022-11-12T15:15:39.364Z,12.90
2022-11-12T15:18:14.670Z,12.90
2022-11-12T15:20:43.182Z,12.90
2022-11-12T15:23:20.110Z,12.80
2022-11-12T15:25:59.171Z,12.80
2022-11-12T15:28:27.264Z,12.80
2022-11-12T15:31:15.960Z,12.80
2022-11-12T15:33:43.311Z,12.80
2022-11-12T15:36:21.784Z,12.80
2022-11-12T15:38:54.369Z,12.80
2022-11-12T15:41:29.545Z,12.80
2022-11-12T15:43:57.278Z,12.80
2022-11-12T15:46:24.385Z,12.80
2022-11-12T15:48:55.836Z,12.70
2022-11-12T15:51:23.889Z,12.70
2022-11-12T15:53:51.102Z,12.80
2022-11-12T15:56:22.163Z,12.70
2022-11-12T15:58:49.276Z,12.70
2022-11-12T16:01:16.413Z,12.80
2022-11-12T16:03:43.516Z,12.80
2022-11-12T16:06:12.322Z,12.70
2022-11-12T16:08:39.420Z,12.70
2022-11-12T16:11:26.662Z,12.70
2022-11-12T16:13:53.743Z,12.70
2022-11-12T16:16:20.760Z,12.70
2022-11-12T16:18:47.982Z,12.70
2022-11-12T16:21:20.511Z,12.70
2022-11-12T16:23:48.043Z,12.70
2022-11-12T16:26:23.800Z,12.70
2022-11-12T16:28:51.032Z,12.70
2022-11-12T16:31:20.001Z,12.70
2022-11-12T16:33:47.061Z,12.70
2022-11-12T16:36:15.710Z,12.60
2022-11-12T16:38:42.845Z,12.60
2022-11-12T16:41:12.135Z,12.60
2022-11-12T16:43:40.023Z,12.50
2022-11-12T16:46:26.332Z,12.50
2022-11-12T16:48:54.029Z,12.50
2022-11-12T16:51:22.541Z,12.50
2022-11-12T16:53:49.592Z,12.50
2022-11-12T16:56:21.398Z,12.50
2022-11-12T16:58:49.937Z,12.50
2022-11-12T17:01:28.653Z,12.50
2022-11-12T17:03:57.585Z,12.40
2022-11-12T17:06:34.001Z,12.40
2022-11-12T17:09:01.232Z,12.40
2022-11-12T17:11:28.264Z,12.40
2022-11-12T17:13:55.333Z,12.40
2022-11-12T17:16:22.645Z,12.40
2022-11-12T17:18:53.665Z,12.40
2022-11-12T17:21:21.091Z,12.40
2022-11-12T17:23:48.388Z,12.40
2022-11-12T17:26:18.155Z,12.40
2022-11-12T17:28:46.096Z,12.40
2022-11-12T17:31:22.736Z,12.40
2022-11-12T17:33:52.031Z,12.40
2022-11-12T17:36:25.403Z,12.40
2022-11-12T17:38:56.770Z,12.40
2022-11-12T17:41:24.487Z,12.40
2022-11-12T17:43:59.619Z,12.40
2022-11-12T17:46:27.198Z,12.40
2022-11-12T17:48:55.721Z,12.40
2022-11-12T17:51:25.547Z,12.40
2022-11-12T17:53:53.835Z,12.40
2022-11-12T17:56:23.429Z,12.40
2022-11-12T17:58:51.415Z,12.40
2022-11-12T18:01:25.165Z,12.40
2022-11-12T18:03:54.621Z,12.40
2022-11-12T18:06:24.663Z,12.40
2022-11-12T18:08:59.638Z,12.40
2022-11-12T18:11:28.742Z,12.40
2022-11-12T18:13:56.954Z,12.40
2022-11-12T18:16:29.468Z,12.40
2022-11-12T18:18:57.681Z,12.40
2022-11-12T18:21:26.143Z,12.40
2022-11-12T18:23:54.169Z,12.40
2022-11-12T18:26:21.688Z,12.40
2022-11-12T18:28:56.194Z,12.50
2022-11-12T18:31:24.767Z,12.40
2022-11-12T18:33:52.070Z,12.40
2022-11-12T18:36:24.902Z,12.40
2022-11-12T18:38:53.492Z,12.50
2022-11-12T18:41:27.184Z,12.40
2022-11-12T18:43:55.441Z,12.40
2022-11-12T18:46:23.364Z,12.50
2022-11-12T18:48:51.218Z,12.50
2022-11-12T18:51:19.584Z,12.40
2022-11-12T18:53:47.324Z,12.50
2022-11-12T18:56:20.804Z,12.50
2022-11-12T18:58:48.332Z,12.50
2022-11-12T19:01:18.528Z,12.50
2022-11-12T19:03:45.605Z,12.50
2022-11-12T19:06:14.101Z,12.50
2022-11-12T19:08:41.650Z,12.60
2022-11-12T19:11:14.413Z,12.60
2022-11-12T19:13:42.619Z,12.60
2022-11-12T19:16:12.765Z,12.60
2022-11-12T19:18:41.689Z,12.60
2022-11-12T19:21:11.070Z,12.60
2022-11-12T19:23:39.031Z,12.70
2022-11-12T19:26:08.686Z,12.60
2022-11-12T19:28:36.057Z,12.60
2022-11-12T19:31:08.152Z,12.60
2022-11-12T19:33:35.582Z,12.70
2022-11-12T19:36:07.667Z,12.70
2022-11-12T19:38:35.018Z,12.70
2022-11-12T19:41:14.701Z,12.70
2022-11-12T19:43:45.097Z,12.70
2022-11-12T19:46:12.430Z,12.70
2022-11-12T19:48:39.854Z,12.70
2022-11-12T19:51:09.314Z,12.70
2022-11-12T19:53:41.199Z,12.70
2022-11-12T19:56:08.801Z,12.70
2022-11-12T19:58:35.850Z,12.60
2022-11-12T20:01:08.363Z,12.60
2022-11-12T20:03:36.657Z,12.50
2022-11-12T20:06:08.987Z,12.50
2022-11-12T20:08:36.796Z,12.50
2022-11-12T20:11:04.866Z,12.60
2022-11-12T20:13:32.294Z,12.60
2022-11-12T20:15:59.599Z,12.60
2022-11-12T20:18:27.309Z,12.60
2022-11-12T20:20:57.473Z,12.70
2022-11-12T20:23:25.474Z,12.60
2022-11-12T20:25:53.465Z,12.60
2022-11-12T20:28:20.890Z,12.70
2022-11-12T20:30:48.051Z,12.70
2022-11-12T20:33:15.197Z,12.70
2022-11-12T20:35:42.324Z,12.70
2022-11-12T20:38:09.617Z,12.70
2022-11-12T20:40:36.707Z,12.70
2022-11-12T20:43:04.068Z,12.70
2022-11-12T20:45:31.114Z,12.60
2022-11-12T20:47:58.218Z,12.60
2022-11-12T20:50:25.523Z,12.70
2022-11-12T20:52:52.539Z,12.70
2022-11-12T20:55:19.650Z,12.70
2022-11-12T20:57:46.790Z,12.70
2022-11-12T21:00:17.748Z,12.70
2022-11-12T21:02:47.536Z,12.70
2022-11-12T21:05:14.799Z,12.70
2022-11-12T21:07:41.984Z,12.70
2022-11-12T21:10:10.207Z,12.70
2022-11-12T21:12:37.851Z,12.80
2022-11-12T21:15:05.850Z,12.80
2022-11-12T21:17:33.070Z,12.80
2022-11-12T21:20:00.462Z,12.80
2022-11-12T21:22:27.683Z,12.80
2022-11-12T21:24:55.095Z,12.80
2022-11-12T21:27:22.907Z,12.90
2022-11-12T21:29:50.293Z,12.90
2022-11-12T21:32:19.871Z,12.80
2022-11-12T21:34:47.458Z,12.80
2022-11-12T21:37:15.114Z,12.80
2022-11-12T21:39:43.321Z,12.80
2022-11-12T21:42:12.037Z,12.80
2022-11-12T21:44:46.636Z,12.80
2022-11-12T21:47:14.126Z,12.90
2022-11-12T21:49:41.456Z,12.80
2022-11-12T21:52:11.490Z,12.80
2022-11-12T21:54:41.667Z,12.90
2022-11-12T21:57:14.812Z,12.90
2022-11-12T21:59:45.064Z,12.90
2022-11-12T22:02:12.895Z,12.90
2022-11-12T22:04:40.599Z,12.90
2022-11-12T22:07:09.159Z,13.00
2022-11-12T22:09:36.430Z,13.00
2022-11-12T22:12:03.841Z,13.00
2022-11-12T22:14:31.096Z,13.00
2022-11-12T22:16:58.619Z,13.00
2022-11-12T22:19:25.658Z,13.00
2022-11-12T22:21:52.798Z,13.00
2022-11-12T22:24:19.960Z,13.10
2022-11-12T22:26:47.079Z,13.10
2022-11-12T22:29:14.317Z,13.10
2022-11-12T22:31:41.370Z,13.10
2022-11-12T22:34:09.702Z,13.20
2022-11-12T22:36:36.869Z,13.20
2022-11-12T22:39:05.175Z,13.20
2022-11-12T22:41:32.925Z,13.20
2022-11-12T22:44:02.335Z,13.20
2022-11-12T22:46:35.104Z,13.20
2022-11-12T22:49:03.619Z,13.20
2022-11-12T22:51:32.345Z,13.20
2022-11-12T22:54:01.784Z,13.20
2022-11-12T22:56:29.523Z,13.20
2022-11-12T22:58:58.194Z,13.30
2022-11-12T23:01:34.204Z,13.20
2022-11-12T23:04:03.596Z,13.20
2022-11-12T23:06:31.946Z,13.20
2022-11-12T23:09:00.315Z,13.20
2022-11-12T23:11:27.851Z,13.20
2022-11-12T23:13:55.883Z,13.20
2022-11-12T23:16:32.249Z,13.20
2022-11-12T23:18:59.944Z,13.20
2022-11-12T23:21:29.267Z,13.20
2022-11-12T23:24:00.137Z,13.30
2022-11-12T23:26:31.175Z,13.30
2022-11-12T23:28:58.368Z,13.30
2022-11-12T23:31:28.428Z,13.30
2022-11-12T23:33:57.364Z,13.30
2022-11-12T23:36:25.963Z,13.20
2022-11-12T23:38:53.631Z,13.20
2022-11-12T23:41:23.321Z,13.20
2022-11-12T23:43:50.743Z,13.20
2022-11-12T23:46:17.787Z,13.20
2022-11-12T23:48:44.927Z,13.30
2022-11-12T23:51:17.759Z,13.30
2022-11-12T23:53:45.672Z,13.30
2022-11-12T23:56:15.067Z,13.30
2022-11-12T23:58:42.412Z,13.30
